sensor_id;sensor_type;location;lat;lon;timestamp;P1;durP1;ratioP1;P2;durP2;ratioP2
31760;SDS011;18335;51.486;7.562;2023-12-20T00:00:59;23.25;;;14.35;;
31760;SDS011;18335;51.486;7.562;2023-12-20T00:03:25;26.45;;;15.88;;
31760;SDS011;18335;51.486;7.562;2023-12-20T00:05:52;21.02;;;12.77;;
31760;SDS011;18335;51.486;7.562;2023-12-20T00:08:19;25.63;;;14.55;;
31760;SDS011;18335;51.486;7.562;2023-12-20T00:10:46;20.98;;;12.20;;
31760;SDS011;18335;51.486;7.562;2023-12-20T00:13:12;23.95;;;13.85;;
31760;SDS011;18335;51.486;7.562;2023-12-20T00:15:41;21.55;;;13.38;;
31760;SDS011;18335;51.486;7.562;2023-12-20T00:18:07;24.75;;;13.23;;
31760;SDS011;18335;51.486;7.562;2023-12-20T00:20:34;26.95;;;15.68;;
31760;SDS011;18335;51.486;7.562;2023-12-20T00:23:01;20.50;;;12.65;;
31760;SDS011;18335;51.486;7.562;2023-12-20T00:25:28;27.83;;;14.27;;
31760;SDS011;18335;51.486;7.562;2023-12-20T00:27:55;22.63;;;13.95;;
31760;SDS011;18335;51.486;7.562;2023-12-20T00:30:22;23.23;;;14.23;;
31760;SDS011;18335;51.486;7.562;2023-12-20T00:32:50;23.33;;;14.07;;
31760;SDS011;18335;51.486;7.562;2023-12-20T00:35:18;21.80;;;13.50;;
31760;SDS011;18335;51.486;7.562;2023-12-20T00:37:45;24.50;;;13.63;;
31760;SDS011;18335;51.486;7.562;2023-12-20T00:40:12;22.58;;;12.93;;
31760;SDS011;18335;51.486;7.562;2023-12-20T00:42:39;23.05;;;13.98;;
31760;SDS011;18335;51.486;7.562;2023-12-20T00:45:05;23.33;;;13.70;;
31760;SDS011;18335;51.486;7.562;2023-12-20T00:47:33;23.05;;;14.32;;
31760;SDS011;18335;51.486;7.562;2023-12-20T00:50:01;22.67;;;12.77;;
31760;SDS011;18335;51.486;7.562;2023-12-20T00:52:28;23.17;;;13.82;;
31760;SDS011;18335;51.486;7.562;2023-12-20T00:54:55;22.40;;;12.52;;
31760;SDS011;18335;51.486;7.562;2023-12-20T00:57:22;23.40;;;12.48;;
31760;SDS011;18335;51.486;7.562;2023-12-20T00:59:50;24.70;;;12.38;;
31760;SDS011;18335;51.486;7.562;2023-12-20T01:02:17;16.70;;;9.35;;
31760;SDS011;18335;51.486;7.562;2023-12-20T01:04:44;17.83;;;8.50;;
31760;SDS011;18335;51.486;7.562;2023-12-20T01:07:12;16.20;;;7.63;;
31760;SDS011;18335;51.486;7.562;2023-12-20T01:09:39;14.23;;;6.72;;
31760;SDS011;18335;51.486;7.562;2023-12-20T01:12:06;14.05;;;6.32;;
31760;SDS011;18335;51.486;7.562;2023-12-20T01:14:32;17.15;;;6.40;;
31760;SDS011;18335;51.486;7.562;2023-12-20T01:16:59;16.77;;;5.70;;
31760;SDS011;18335;51.486;7.562;2023-12-20T01:19:26;18.20;;;6.13;;
31760;SDS011;18335;51.486;7.562;2023-12-20T01:21:54;18.30;;;5.28;;
31760;SDS011;18335;51.486;7.562;2023-12-20T01:24:22;28.50;;;6.60;;
31760;SDS011;18335;51.486;7.562;2023-12-20T01:26:49;14.70;;;5.80;;
31760;SDS011;18335;51.486;7.562;2023-12-20T01:29:16;15.07;;;5.95;;
31760;SDS011;18335;51.486;7.562;2023-12-20T01:31:43;12.55;;;4.88;;
31760;SDS011;18335;51.486;7.562;2023-12-20T01:34:09;15.27;;;6.05;;
31760;SDS011;18335;51.486;7.562;2023-12-20T01:36:36;15.10;;;6.78;;
31760;SDS011;18335;51.486;7.562;2023-12-20T01:39:03;12.45;;;4.43;;
31760;SDS011;18335;51.486;7.562;2023-12-20T01:41:31;16.42;;;5.53;;
31760;SDS011;18335;51.486;7.562;2023-12-20T01:43:58;14.90;;;4.97;;
31760;SDS011;18335;51.486;7.562;2023-12-20T01:46:25;13.68;;;5.38;;
31760;SDS011;18335;51.486;7.562;2023-12-20T01:48:53;12.48;;;4.65;;
31760;SDS011;18335;51.486;7.562;2023-12-20T01:51:19;18.05;;;4.53;;
31760;SDS011;18335;51.486;7.562;2023-12-20T01:53:47;11.55;;;4.00;;
31760;SDS011;18335;51.486;7.562;2023-12-20T01:56:15;12.23;;;4.30;;
31760;SDS011;18335;51.486;7.562;2023-12-20T01:58:44;11.82;;;4.30;;
31760;SDS011;18335;51.486;7.562;2023-12-20T02:01:12;17.05;;;5.93;;
31760;SDS011;18335;51.486;7.562;2023-12-20T02:03:40;11.55;;;4.72;;
31760;SDS011;18335;51.486;7.562;2023-12-20T02:06:08;16.30;;;5.78;;
31760;SDS011;18335;51.486;7.562;2023-12-20T02:08:35;16.17;;;5.60;;
31760;SDS011;18335;51.486;7.562;2023-12-20T02:11:02;14.45;;;5.75;;
31760;SDS011;18335;51.486;7.562;2023-12-20T02:13:30;15.57;;;5.43;;
31760;SDS011;18335;51.486;7.562;2023-12-20T02:15:58;13.98;;;4.78;;
31760;SDS011;18335;51.486;7.562;2023-12-20T02:18:24;11.07;;;4.03;;
31760;SDS011;18335;51.486;7.562;2023-12-20T02:20:51;11.18;;;4.50;;
31760;SDS011;18335;51.486;7.562;2023-12-20T02:23:20;13.90;;;5.43;;
31760;SDS011;18335;51.486;7.562;2023-12-20T02:25:46;14.85;;;5.05;;
31760;SDS011;18335;51.486;7.562;2023-12-20T02:28:13;12.63;;;5.15;;
31760;SDS011;18335;51.486;7.562;2023-12-20T02:30:40;15.95;;;5.40;;
31760;SDS011;18335;51.486;7.562;2023-12-20T02:33:08;11.20;;;4.18;;
31760;SDS011;18335;51.486;7.562;2023-12-20T02:35:38;15.00;;;4.82;;
31760;SDS011;18335;51.486;7.562;2023-12-20T02:38:05;13.00;;;5.10;;
31760;SDS011;18335;51.486;7.562;2023-12-20T02:40:33;15.73;;;5.25;;
31760;SDS011;18335;51.486;7.562;2023-12-20T02:43:00;11.40;;;4.30;;
31760;SDS011;18335;51.486;7.562;2023-12-20T02:45:26;24.13;;;4.78;;
31760;SDS011;18335;51.486;7.562;2023-12-20T02:47:53;19.13;;;5.32;;
31760;SDS011;18335;51.486;7.562;2023-12-20T02:50:20;14.52;;;4.60;;
31760;SDS011;18335;51.486;7.562;2023-12-20T02:52:47;15.88;;;4.50;;
31760;SDS011;18335;51.486;7.562;2023-12-20T02:55:14;14.60;;;4.75;;
31760;SDS011;18335;51.486;7.562;2023-12-20T02:57:42;16.75;;;4.78;;
31760;SDS011;18335;51.486;7.562;2023-12-20T03:00:09;10.23;;;4.28;;
31760;SDS011;18335;51.486;7.562;2023-12-20T03:02:36;17.88;;;5.10;;
31760;SDS011;18335;51.486;7.562;2023-12-20T03:05:03;12.48;;;4.28;;
31760;SDS011;18335;51.486;7.562;2023-12-20T03:07:30;20.55;;;4.82;;
31760;SDS011;18335;51.486;7.562;2023-12-20T03:09:58;15.77;;;5.13;;
31760;SDS011;18335;51.486;7.562;2023-12-20T03:12:24;13.27;;;5.15;;
31760;SDS011;18335;51.486;7.562;2023-12-20T03:14:52;16.33;;;5.50;;
31760;SDS011;18335;51.486;7.562;2023-12-20T03:17:19;14.73;;;4.13;;
31760;SDS011;18335;51.486;7.562;2023-12-20T03:19:46;16.75;;;5.65;;
31760;SDS011;18335;51.486;7.562;2023-12-20T03:22:13;13.43;;;4.60;;
31760;SDS011;18335;51.486;7.562;2023-12-20T03:24:39;21.35;;;6.43;;
31760;SDS011;18335;51.486;7.562;2023-12-20T03:27:06;19.33;;;5.72;;
31760;SDS011;18335;51.486;7.562;2023-12-20T03:29:33;12.30;;;5.68;;
31760;SDS011;18335;51.486;7.562;2023-12-20T03:32:01;17.35;;;5.70;;
31760;SDS011;18335;51.486;7.562;2023-12-20T03:34:27;20.75;;;5.88;;
31760;SDS011;18335;51.486;7.562;2023-12-20T03:36:55;16.67;;;5.93;;
31760;SDS011;18335;51.486;7.562;2023-12-20T03:39:22;22.45;;;6.20;;
31760;SDS011;18335;51.486;7.562;2023-12-20T03:41:48;15.98;;;4.50;;
31760;SDS011;18335;51.486;7.562;2023-12-20T03:44:15;20.98;;;6.97;;
31760;SDS011;18335;51.486;7.562;2023-12-20T03:46:42;18.73;;;6.28;;
31760;SDS011;18335;51.486;7.562;2023-12-20T03:49:12;15.52;;;5.57;;
31760;SDS011;18335;51.486;7.562;2023-12-20T03:51:39;21.92;;;5.45;;
31760;SDS011;18335;51.486;7.562;2023-12-20T03:54:05;23.35;;;6.43;;
31760;SDS011;18335;51.486;7.562;2023-12-20T03:56:32;16.25;;;6.20;;
31760;SDS011;18335;51.486;7.562;2023-12-20T03:58:59;18.02;;;6.50;;
31760;SDS011;18335;51.486;7.562;2023-12-20T04:01:25;17.27;;;5.72;;
31760;SDS011;18335;51.486;7.562;2023-12-20T04:03:52;19.13;;;5.95;;
31760;SDS011;18335;51.486;7.562;2023-12-20T04:06:20;20.92;;;6.07;;
31760;SDS011;18335;51.486;7.562;2023-12-20T04:08:47;22.60;;;8.20;;
31760;SDS011;18335;51.486;7.562;2023-12-20T04:11:13;24.35;;;8.10;;
31760;SDS011;18335;51.486;7.562;2023-12-20T04:13:39;17.10;;;7.10;;
31760;SDS011;18335;51.486;7.562;2023-12-20T04:16:06;21.92;;;7.03;;
31760;SDS011;18335;51.486;7.562;2023-12-20T04:18:32;22.63;;;6.20;;
31760;SDS011;18335;51.486;7.562;2023-12-20T04:20:59;26.13;;;7.80;;
31760;SDS011;18335;51.486;7.562;2023-12-20T04:23:27;28.70;;;8.43;;
31760;SDS011;18335;51.486;7.562;2023-12-20T04:25:54;17.80;;;6.10;;
31760;SDS011;18335;51.486;7.562;2023-12-20T04:28:21;18.35;;;5.72;;
31760;SDS011;18335;51.486;7.562;2023-12-20T04:30:47;16.88;;;5.80;;
31760;SDS011;18335;51.486;7.562;2023-12-20T04:33:14;15.35;;;5.88;;
31760;SDS011;18335;51.486;7.562;2023-12-20T04:35:41;24.08;;;6.78;;
31760;SDS011;18335;51.486;7.562;2023-12-20T04:38:08;18.90;;;5.80;;
31760;SDS011;18335;51.486;7.562;2023-12-20T04:40:36;20.50;;;5.40;;
31760;SDS011;18335;51.486;7.562;2023-12-20T04:43:03;19.65;;;5.50;;
31760;SDS011;18335;51.486;7.562;2023-12-20T04:45:30;18.52;;;5.40;;
31760;SDS011;18335;51.486;7.562;2023-12-20T04:47:56;29.20;;;6.80;;
31760;SDS011;18335;51.486;7.562;2023-12-20T04:50:23;23.27;;;7.40;;
31760;SDS011;18335;51.486;7.562;2023-12-20T04:52:50;22.83;;;6.75;;
31760;SDS011;18335;51.486;7.562;2023-12-20T04:55:17;25.63;;;6.57;;
31760;SDS011;18335;51.486;7.562;2023-12-20T04:57:45;17.55;;;6.80;;
31760;SDS011;18335;51.486;7.562;2023-12-20T05:00:12;21.23;;;6.40;;
31760;SDS011;18335;51.486;7.562;2023-12-20T05:02:40;17.67;;;7.65;;
31760;SDS011;18335;51.486;7.562;2023-12-20T05:05:08;23.17;;;7.53;;
31760;SDS011;18335;51.486;7.562;2023-12-20T05:07:34;20.33;;;7.65;;
31760;SDS011;18335;51.486;7.562;2023-12-20T05:10:02;22.48;;;7.50;;
31760;SDS011;18335;51.486;7.562;2023-12-20T05:12:30;20.27;;;6.97;;
31760;SDS011;18335;51.486;7.562;2023-12-20T05:14:58;19.48;;;8.25;;
31760;SDS011;18335;51.486;7.562;2023-12-20T05:17:25;21.45;;;9.25;;
31760;SDS011;18335;51.486;7.562;2023-12-20T05:19:52;24.38;;;8.93;;
31760;SDS011;18335;51.486;7.562;2023-12-20T05:22:18;27.20;;;8.63;;
31760;SDS011;18335;51.486;7.562;2023-12-20T05:24:46;27.73;;;8.60;;
31760;SDS011;18335;51.486;7.562;2023-12-20T05:27:13;23.92;;;8.35;;
31760;SDS011;18335;51.486;7.562;2023-12-20T05:29:40;19.42;;;6.82;;
31760;SDS011;18335;51.486;7.562;2023-12-20T05:32:08;28.02;;;7.20;;
31760;SDS011;18335;51.486;7.562;2023-12-20T05:34:36;19.35;;;6.88;;
31760;SDS011;18335;51.486;7.562;2023-12-20T05:37:03;20.25;;;7.28;;
31760;SDS011;18335;51.486;7.562;2023-12-20T05:39:30;19.77;;;6.20;;
31760;SDS011;18335;51.486;7.562;2023-12-20T05:41:56;22.27;;;7.03;;
31760;SDS011;18335;51.486;7.562;2023-12-20T05:44:23;16.10;;;6.35;;
31760;SDS011;18335;51.486;7.562;2023-12-20T05:46:50;22.23;;;7.50;;
31760;SDS011;18335;51.486;7.562;2023-12-20T05:49:18;19.63;;;6.55;;
31760;SDS011;18335;51.486;7.562;2023-12-20T05:51:44;17.70;;;7.05;;
31760;SDS011;18335;51.486;7.562;2023-12-20T05:54:11;16.63;;;6.53;;
31760;SDS011;18335;51.486;7.562;2023-12-20T05:56:38;22.20;;;6.63;;
31760;SDS011;18335;51.486;7.562;2023-12-20T05:59:05;23.02;;;7.07;;
31760;SDS011;18335;51.486;7.562;2023-12-20T06:01:32;21.73;;;7.78;;
31760;SDS011;18335;51.486;7.562;2023-12-20T06:03:58;21.08;;;6.28;;
31760;SDS011;18335;51.486;7.562;2023-12-20T06:06:26;20.95;;;7.22;;
31760;SDS011;18335;51.486;7.562;2023-12-20T06:08:53;18.48;;;6.43;;
31760;SDS011;18335;51.486;7.562;2023-12-20T06:11:20;21.60;;;6.80;;
31760;SDS011;18335;51.486;7.562;2023-12-20T06:13:47;20.98;;;6.78;;
31760;SDS011;18335;51.486;7.562;2023-12-20T06:16:14;25.55;;;7.47;;
31760;SDS011;18335;51.486;7.562;2023-12-20T06:18:41;18.77;;;6.45;;
31760;SDS011;18335;51.486;7.562;2023-12-20T06:21:08;21.08;;;7.50;;
31760;SDS011;18335;51.486;7.562;2023-12-20T06:23:39;23.60;;;7.32;;
31760;SDS011;18335;51.486;7.562;2023-12-20T06:26:06;24.85;;;7.70;;
31760;SDS011;18335;51.486;7.562;2023-12-20T06:28:32;27.58;;;8.43;;
31760;SDS011;18335;51.486;7.562;2023-12-20T06:30:59;22.63;;;7.57;;
31760;SDS011;18335;51.486;7.562;2023-12-20T06:33:27;20.48;;;7.45;;
31760;SDS011;18335;51.486;7.562;2023-12-20T06:35:54;25.35;;;8.25;;
31760;SDS011;18335;51.486;7.562;2023-12-20T06:38:21;20.35;;;7.18;;
31760;SDS011;18335;51.486;7.562;2023-12-20T06:40:49;24.80;;;7.57;;
31760;SDS011;18335;51.486;7.562;2023-12-20T06:43:16;18.85;;;7.53;;
31760;SDS011;18335;51.486;7.562;2023-12-20T06:45:42;25.05;;;7.80;;
31760;SDS011;18335;51.486;7.562;2023-12-20T06:48:09;21.15;;;8.27;;
31760;SDS011;18335;51.486;7.562;2023-12-20T06:50:38;22.42;;;9.20;;
31760;SDS011;18335;51.486;7.562;2023-12-20T06:53:05;25.67;;;8.70;;
31760;SDS011;18335;51.486;7.562;2023-12-20T06:55:33;24.50;;;7.28;;
31760;SDS011;18335;51.486;7.562;2023-12-20T06:58:02;21.20;;;8.27;;
31760;SDS011;18335;51.486;7.562;2023-12-20T07:00:28;21.95;;;7.28;;
31760;SDS011;18335;51.486;7.562;2023-12-20T07:02:55;22.92;;;6.47;;
31760;SDS011;18335;51.486;7.562;2023-12-20T07:05:22;26.88;;;8.18;;
31760;SDS011;18335;51.486;7.562;2023-12-20T07:07:49;27.00;;;7.38;;
31760;SDS011;18335;51.486;7.562;2023-12-20T07:10:15;27.00;;;8.90;;
31760;SDS011;18335;51.486;7.562;2023-12-20T07:12:42;21.08;;;7.05;;
31760;SDS011;18335;51.486;7.562;2023-12-20T07:15:11;27.00;;;6.65;;
31760;SDS011;18335;51.486;7.562;2023-12-20T07:17:37;26.58;;;8.90;;
31760;SDS011;18335;51.486;7.562;2023-12-20T07:20:05;19.70;;;5.85;;
31760;SDS011;18335;51.486;7.562;2023-12-20T07:22:35;26.58;;;6.78;;
31760;SDS011;18335;51.486;7.562;2023-12-20T07:25:01;24.30;;;7.65;;
31760;SDS011;18335;51.486;7.562;2023-12-20T07:27:29;22.30;;;7.05;;
31760;SDS011;18335;51.486;7.562;2023-12-20T07:29:56;21.23;;;6.95;;
31760;SDS011;18335;51.486;7.562;2023-12-20T07:32:24;23.42;;;6.43;;
31760;SDS011;18335;51.486;7.562;2023-12-20T07:34:50;27.70;;;7.60;;
31760;SDS011;18335;51.486;7.562;2023-12-20T07:37:18;24.40;;;6.50;;
31760;SDS011;18335;51.486;7.562;2023-12-20T07:39:46;16.65;;;5.88;;
31760;SDS011;18335;51.486;7.562;2023-12-20T07:42:13;38.05;;;7.97;;
31760;SDS011;18335;51.486;7.562;2023-12-20T07:44:39;21.45;;;6.28;;
31760;SDS011;18335;51.486;7.562;2023-12-20T07:47:06;21.90;;;6.25;;
31760;SDS011;18335;51.486;7.562;2023-12-20T07:49:34;19.65;;;6.38;;
31760;SDS011;18335;51.486;7.562;2023-12-20T07:52:01;21.02;;;5.72;;
31760;SDS011;18335;51.486;7.562;2023-12-20T07:54:28;24.02;;;5.68;;
31760;SDS011;18335;51.486;7.562;2023-12-20T07:56:56;23.90;;;6.53;;
31760;SDS011;18335;51.486;7.562;2023-12-20T07:59:23;19.13;;;6.57;;
31760;SDS011;18335;51.486;7.562;2023-12-20T08:01:50;22.88;;;5.25;;
31760;SDS011;18335;51.486;7.562;2023-12-20T08:04:17;18.20;;;5.45;;
31760;SDS011;18335;51.486;7.562;2023-12-20T08:06:45;20.27;;;5.72;;
31760;SDS011;18335;51.486;7.562;2023-12-20T08:09:12;17.17;;;6.43;;
31760;SDS011;18335;51.486;7.562;2023-12-20T08:11:39;20.20;;;5.85;;
31760;SDS011;18335;51.486;7.562;2023-12-20T08:14:05;23.17;;;7.60;;
31760;SDS011;18335;51.486;7.562;2023-12-20T08:16:32;16.90;;;5.55;;
31760;SDS011;18335;51.486;7.562;2023-12-20T08:18:59;14.85;;;4.90;;
31760;SDS011;18335;51.486;7.562;2023-12-20T08:21:26;23.65;;;5.75;;
31760;SDS011;18335;51.486;7.562;2023-12-20T08:23:54;22.05;;;7.18;;
31760;SDS011;18335;51.486;7.562;2023-12-20T08:26:21;18.27;;;6.03;;
31760;SDS011;18335;51.486;7.562;2023-12-20T08:28:49;20.05;;;5.95;;
31760;SDS011;18335;51.486;7.562;2023-12-20T08:31:16;21.92;;;7.75;;
31760;SDS011;18335;51.486;7.562;2023-12-20T08:33:44;17.88;;;5.95;;
31760;SDS011;18335;51.486;7.562;2023-12-20T08:36:12;24.20;;;5.65;;
31760;SDS011;18335;51.486;7.562;2023-12-20T08:38:39;16.35;;;5.30;;
31760;SDS011;18335;51.486;7.562;2023-12-20T08:41:07;16.02;;;5.40;;
31760;SDS011;18335;51.486;7.562;2023-12-20T08:43:34;22.42;;;6.03;;
31760;SDS011;18335;51.486;7.562;2023-12-20T08:46:01;24.98;;;7.10;;
31760;SDS011;18335;51.486;7.562;2023-12-20T08:48:28;20.17;;;6.63;;
31760;SDS011;18335;51.486;7.562;2023-12-20T08:50:55;18.90;;;5.85;;
31760;SDS011;18335;51.486;7.562;2023-12-20T08:53:22;19.80;;;5.88;;
31760;SDS011;18335;51.486;7.562;2023-12-20T08:55:50;22.65;;;8.02;;
31760;SDS011;18335;51.486;7.562;2023-12-20T08:58:18;24.08;;;6.88;;
31760;SDS011;18335;51.486;7.562;2023-12-20T09:00:49;15.65;;;5.32;;
31760;SDS011;18335;51.486;7.562;2023-12-20T09:03:15;20.77;;;5.65;;
31760;SDS011;18335;51.486;7.562;2023-12-20T09:05:42;17.40;;;5.88;;
31760;SDS011;18335;51.486;7.562;2023-12-20T09:08:09;25.42;;;6.90;;
31760;SDS011;18335;51.486;7.562;2023-12-20T09:10:37;18.77;;;5.63;;
31760;SDS011;18335;51.486;7.562;2023-12-20T09:13:04;16.90;;;4.93;;
31760;SDS011;18335;51.486;7.562;2023-12-20T09:15:32;19.92;;;7.20;;
31760;SDS011;18335;51.486;7.562;2023-12-20T09:18:00;19.25;;;6.13;;
31760;SDS011;18335;51.486;7.562;2023-12-20T09:20:29;22.73;;;6.25;;
31760;SDS011;18335;51.486;7.562;2023-12-20T09:22:55;17.95;;;5.97;;
31760;SDS011;18335;51.486;7.562;2023-12-20T09:25:22;23.98;;;6.70;;
31760;SDS011;18335;51.486;7.562;2023-12-20T09:27:49;19.42;;;5.63;;
31760;SDS011;18335;51.486;7.562;2023-12-20T09:30:16;17.67;;;6.25;;
31760;SDS011;18335;51.486;7.562;2023-12-20T09:32:44;18.40;;;6.15;;
31760;SDS011;18335;51.486;7.562;2023-12-20T09:35:12;20.77;;;5.70;;
31760;SDS011;18335;51.486;7.562;2023-12-20T09:37:40;22.80;;;6.22;;
31760;SDS011;18335;51.486;7.562;2023-12-20T09:40:11;20.55;;;5.55;;
31760;SDS011;18335;51.486;7.562;2023-12-20T09:42:41;18.80;;;5.38;;
31760;SDS011;18335;51.486;7.562;2023-12-20T09:45:15;15.85;;;4.72;;
31760;SDS011;18335;51.486;7.562;2023-12-20T09:47:42;24.30;;;7.35;;
31760;SDS011;18335;51.486;7.562;2023-12-20T09:50:11;15.60;;;4.07;;
31760;SDS011;18335;51.486;7.562;2023-12-20T09:52:39;21.38;;;4.93;;
31760;SDS011;18335;51.486;7.562;2023-12-20T09:55:07;27.40;;;5.82;;
31760;SDS011;18335;51.486;7.562;2023-12-20T09:57:35;22.10;;;5.78;;
31760;SDS011;18335;51.486;7.562;2023-12-20T10:00:02;17.98;;;5.13;;
31760;SDS011;18335;51.486;7.562;2023-12-20T10:02:37;21.03;;;5.13;;
31760;SDS011;18335;51.486;7.562;2023-12-20T10:05:09;23.50;;;5.22;;
31760;SDS011;18335;51.486;7.562;2023-12-20T10:12:38;19.30;;;4.70;;
31760;SDS011;18335;51.486;7.562;2023-12-20T10:15:05;15.82;;;5.45;;
31760;SDS011;18335;51.486;7.562;2023-12-20T10:17:33;19.52;;;4.90;;
31760;SDS011;18335;51.486;7.562;2023-12-20T10:19:59;21.50;;;6.20;;
31760;SDS011;18335;51.486;7.562;2023-12-20T10:22:28;17.20;;;4.82;;
31760;SDS011;18335;51.486;7.562;2023-12-20T10:24:56;14.85;;;5.15;;
31760;SDS011;18335;51.486;7.562;2023-12-20T10:27:24;12.60;;;3.83;;
31760;SDS011;18335;51.486;7.562;2023-12-20T10:29:51;13.15;;;4.78;;
31760;SDS011;18335;51.486;7.562;2023-12-20T10:32:22;21.75;;;5.78;;
31760;SDS011;18335;51.486;7.562;2023-12-20T10:34:50;20.35;;;4.63;;
31760;SDS011;18335;51.486;7.562;2023-12-20T10:37:17;14.55;;;4.00;;
31760;SDS011;18335;51.486;7.562;2023-12-20T10:39:45;15.57;;;4.32;;
31760;SDS011;18335;51.486;7.562;2023-12-20T10:42:17;16.52;;;4.45;;
31760;SDS011;18335;51.486;7.562;2023-12-20T10:44:46;19.98;;;5.30;;
31760;SDS011;18335;51.486;7.562;2023-12-20T10:47:13;20.45;;;5.18;;
31760;SDS011;18335;51.486;7.562;2023-12-20T10:49:41;20.45;;;5.75;;
31760;SDS011;18335;51.486;7.562;2023-12-20T10:52:09;21.38;;;5.78;;
31760;SDS011;18335;51.486;7.562;2023-12-20T10:54:38;21.42;;;5.93;;
31760;SDS011;18335;51.486;7.562;2023-12-20T10:57:06;19.67;;;5.70;;
31760;SDS011;18335;51.486;7.562;2023-12-20T10:59:33;16.88;;;5.43;;
31760;SDS011;18335;51.486;7.562;2023-12-20T11:02:03;30.20;;;6.10;;
31760;SDS011;18335;51.486;7.562;2023-12-20T11:04:33;15.38;;;5.13;;
31760;SDS011;18335;51.486;7.562;2023-12-20T11:07:15;25.77;;;5.85;;
31760;SDS011;18335;51.486;7.562;2023-12-20T11:09:51;18.52;;;5.45;;
31760;SDS011;18335;51.486;7.562;2023-12-20T11:12:28;15.18;;;4.85;;
31760;SDS011;18335;51.486;7.562;2023-12-20T11:15:05;18.33;;;6.75;;
31760;SDS011;18335;51.486;7.562;2023-12-20T11:17:33;15.45;;;5.22;;
31760;SDS011;18335;51.486;7.562;2023-12-20T11:20:04;18.52;;;6.22;;
31760;SDS011;18335;51.486;7.562;2023-12-20T11:22:33;17.33;;;5.03;;
31760;SDS011;18335;51.486;7.562;2023-12-20T11:25:03;27.63;;;6.60;;
31760;SDS011;18335;51.486;7.562;2023-12-20T11:27:33;25.65;;;6.07;;
31760;SDS011;18335;51.486;7.562;2023-12-20T11:30:00;19.35;;;6.57;;
31760;SDS011;18335;51.486;7.562;2023-12-20T11:32:31;20.67;;;5.88;;
31760;SDS011;18335;51.486;7.562;2023-12-20T11:35:01;27.15;;;7.28;;
31760;SDS011;18335;51.486;7.562;2023-12-20T11:37:42;19.75;;;5.45;;
31760;SDS011;18335;51.486;7.562;2023-12-20T11:40:11;27.50;;;6.95;;
31760;SDS011;18335;51.486;7.562;2023-12-20T11:42:41;13.43;;;5.28;;
31760;SDS011;18335;51.486;7.562;2023-12-20T11:45:09;20.98;;;6.32;;
31760;SDS011;18335;51.486;7.562;2023-12-20T11:47:40;14.10;;;5.20;;
31760;SDS011;18335;51.486;7.562;2023-12-20T11:50:07;22.75;;;6.43;;
31760;SDS011;18335;51.486;7.562;2023-12-20T11:52:34;21.88;;;6.65;;
31760;SDS011;18335;51.486;7.562;2023-12-20T11:55:01;20.08;;;6.50;;
31760;SDS011;18335;51.486;7.562;2023-12-20T11:57:29;19.52;;;5.72;;
31760;SDS011;18335;51.486;7.562;2023-12-20T11:59:57;21.27;;;6.38;;
31760;SDS011;18335;51.486;7.562;2023-12-20T12:02:26;17.30;;;7.15;;
31760;SDS011;18335;51.486;7.562;2023-12-20T12:04:52;18.35;;;5.85;;
31760;SDS011;18335;51.486;7.562;2023-12-20T12:07:20;18.83;;;6.20;;
31760;SDS011;18335;51.486;7.562;2023-12-20T12:09:47;18.05;;;6.22;;
31760;SDS011;18335;51.486;7.562;2023-12-20T12:12:14;21.67;;;6.72;;
31760;SDS011;18335;51.486;7.562;2023-12-20T12:14:41;18.75;;;6.95;;
31760;SDS011;18335;51.486;7.562;2023-12-20T12:17:12;25.52;;;7.10;;
31760;SDS011;18335;51.486;7.562;2023-12-20T12:19:40;23.85;;;6.50;;
31760;SDS011;18335;51.486;7.562;2023-12-20T12:22:07;18.63;;;6.50;;
31760;SDS011;18335;51.486;7.562;2023-12-20T12:24:38;18.88;;;7.00;;
31760;SDS011;18335;51.486;7.562;2023-12-20T12:27:05;18.30;;;6.43;;
31760;SDS011;18335;51.486;7.562;2023-12-20T12:29:32;26.83;;;8.25;;
31760;SDS011;18335;51.486;7.562;2023-12-20T12:31:59;19.67;;;6.07;;
31760;SDS011;18335;51.486;7.562;2023-12-20T12:34:28;18.58;;;6.80;;
31760;SDS011;18335;51.486;7.562;2023-12-20T12:36:55;23.63;;;7.65;;
31760;SDS011;18335;51.486;7.562;2023-12-20T12:39:22;21.58;;;5.97;;
31760;SDS011;18335;51.486;7.562;2023-12-20T12:41:51;24.23;;;8.98;;
31760;SDS011;18335;51.486;7.562;2023-12-20T12:44:18;21.88;;;7.82;;
31760;SDS011;18335;51.486;7.562;2023-12-20T12:46:45;16.13;;;6.13;;
31760;SDS011;18335;51.486;7.562;2023-12-20T12:49:12;19.58;;;6.85;;
31760;SDS011;18335;51.486;7.562;2023-12-20T12:51:40;15.43;;;5.68;;
31760;SDS011;18335;51.486;7.562;2023-12-20T12:54:08;22.15;;;7.38;;
31760;SDS011;18335;51.486;7.562;2023-12-20T12:56:35;19.15;;;5.78;;
31760;SDS011;18335;51.486;7.562;2023-12-20T12:59:01;21.75;;;7.70;;
31760;SDS011;18335;51.486;7.562;2023-12-20T13:01:29;18.08;;;5.75;;
31760;SDS011;18335;51.486;7.562;2023-12-20T13:03:56;20.65;;;6.90;;
31760;SDS011;18335;51.486;7.562;2023-12-20T13:06:22;18.05;;;6.00;;
31760;SDS011;18335;51.486;7.562;2023-12-20T13:08:51;25.45;;;7.32;;
31760;SDS011;18335;51.486;7.562;2023-12-20T13:11:17;19.95;;;6.57;;
31760;SDS011;18335;51.486;7.562;2023-12-20T13:13:44;18.45;;;6.15;;
31760;SDS011;18335;51.486;7.562;2023-12-20T13:16:11;20.38;;;6.90;;
31760;SDS011;18335;51.486;7.562;2023-12-20T13:18:38;15.65;;;6.03;;
31760;SDS011;18335;51.486;7.562;2023-12-20T13:21:07;19.15;;;5.53;;
31760;SDS011;18335;51.486;7.562;2023-12-20T13:23:34;18.75;;;6.22;;
31760;SDS011;18335;51.486;7.562;2023-12-20T13:26:02;22.52;;;6.35;;
31760;SDS011;18335;51.486;7.562;2023-12-20T13:28:29;21.55;;;6.18;;
31760;SDS011;18335;51.486;7.562;2023-12-20T13:30:56;19.40;;;5.93;;
31760;SDS011;18335;51.486;7.562;2023-12-20T13:33:22;21.27;;;6.90;;
31760;SDS011;18335;51.486;7.562;2023-12-20T13:35:49;18.90;;;6.18;;
31760;SDS011;18335;51.486;7.562;2023-12-20T13:38:16;18.75;;;6.03;;
31760;SDS011;18335;51.486;7.562;2023-12-20T13:40:43;19.50;;;6.85;;
31760;SDS011;18335;51.486;7.562;2023-12-20T13:43:11;11.57;;;5.32;;
31760;SDS011;18335;51.486;7.562;2023-12-20T13:45:39;24.13;;;7.70;;
31760;SDS011;18335;51.486;7.562;2023-12-20T13:48:06;20.05;;;7.28;;
31760;SDS011;18335;51.486;7.562;2023-12-20T13:50:33;16.50;;;7.07;;
31760;SDS011;18335;51.486;7.562;2023-12-20T13:53:00;17.05;;;6.80;;
31760;SDS011;18335;51.486;7.562;2023-12-20T13:55:29;18.80;;;6.15;;
31760;SDS011;18335;51.486;7.562;2023-12-20T13:57:56;25.38;;;6.43;;
31760;SDS011;18335;51.486;7.562;2023-12-20T14:00:24;15.73;;;6.60;;
31760;SDS011;18335;51.486;7.562;2023-12-20T14:02:51;21.58;;;7.25;;
31760;SDS011;18335;51.486;7.562;2023-12-20T14:05:18;20.08;;;6.80;;
31760;SDS011;18335;51.486;7.562;2023-12-20T14:07:44;19.60;;;7.03;;
31760;SDS011;18335;51.486;7.562;2023-12-20T14:10:12;19.02;;;5.25;;
31760;SDS011;18335;51.486;7.562;2023-12-20T14:12:39;19.40;;;7.00;;
31760;SDS011;18335;51.486;7.562;2023-12-20T14:15:07;16.90;;;4.10;;
31760;SDS011;18335;51.486;7.562;2023-12-20T14:17:37;12.50;;;4.68;;
31760;SDS011;18335;51.486;7.562;2023-12-20T14:20:05;16.38;;;4.50;;
31760;SDS011;18335;51.486;7.562;2023-12-20T14:22:33;14.00;;;5.00;;
31760;SDS011;18335;51.486;7.562;2023-12-20T14:25:00;12.60;;;4.38;;
31760;SDS011;18335;51.486;7.562;2023-12-20T14:27:28;12.05;;;5.35;;
31760;SDS011;18335;51.486;7.562;2023-12-20T14:29:55;11.55;;;4.03;;
31760;SDS011;18335;51.486;7.562;2023-12-20T14:32:21;17.27;;;4.80;;
31760;SDS011;18335;51.486;7.562;2023-12-20T14:34:50;10.20;;;5.00;;
31760;SDS011;18335;51.486;7.562;2023-12-20T14:37:16;13.43;;;4.75;;
31760;SDS011;18335;51.486;7.562;2023-12-20T14:39:43;15.27;;;5.53;;